sensor_id;sensor_type;location;lat;lon;timestamp;pressure;altitude;pressure_sealevel;temperature;humidity
61908;BME280;47864;52.526;19.672;2023-11-21T00:01:50;149429.25;;;1.64;100.00
61908;BME280;47864;52.526;19.672;2023-11-21T00:03:51;149465.63;;;1.78;100.00
61908;BME280;47864;52.526;19.672;2023-11-21T00:05:53;149528.41;;;2.04;100.00
61908;BME280;47864;52.526;19.672;2023-11-21T00:07:54;149448.06;;;1.71;100.00
61908;BME280;47864;52.526;19.672;2023-11-21T00:09:56;149473.13;;;1.81;100.00
61908;BME280;47864;52.526;19.672;2023-11-21T00:11:57;149469.41;;;1.80;100.00
61908;BME280;47864;52.526;19.672;2023-11-21T00:13:59;149490.75;;;1.88;100.00
61908;BME280;47864;52.526;19.672;2023-11-21T00:16:00;149518.34;;;2.00;100.00
61908;BME280;47864;52.526;19.672;2023-11-21T00:18:02;149528.41;;;2.04;100.00
61908;BME280;47864;52.526;19.672;2023-11-21T00:20:05;149502.03;;;1.93;100.00
61908;BME280;47864;52.526;19.672;2023-11-21T00:22:07;149450.59;;;1.72;100.00
61908;BME280;47864;52.526;19.672;2023-11-21T00:24:09;149515.81;;;1.99;100.00
61908;BME280;47864;52.526;19.672;2023-11-21T00:26:10;149446.81;;;1.71;100.00
61908;BME280;47864;52.526;19.672;2023-11-21T00:28:12;149485.72;;;1.86;100.00
61908;BME280;47864;52.526;19.672;2023-11-21T00:30:14;149492.00;;;1.89;100.00
61908;BME280;47864;52.526;19.672;2023-11-21T00:32:15;149505.81;;;1.95;100.00
61908;BME280;47864;52.526;19.672;2023-11-21T00:34:17;149530.94;;;2.05;100.00
61908;BME280;47864;52.526;19.672;2023-11-21T00:36:18;149489.50;;;1.88;100.00
61908;BME280;47864;52.526;19.672;2023-11-21T00:38:20;149495.75;;;1.90;100.00
61908;BME280;47864;52.526;19.672;2023-11-21T00:40:22;149500.78;;;1.92;100.00
61908;BME280;47864;52.526;19.672;2023-11-21T00:42:23;149468.16;;;1.79;100.00
61908;BME280;47864;52.526;19.672;2023-11-21T00:44:25;149492.00;;;1.89;100.00
61908;BME280;47864;52.526;19.672;2023-11-21T00:46:26;149547.25;;;2.11;100.00
61908;BME280;47864;52.526;19.672;2023-11-21T00:48:28;149480.69;;;1.84;100.00
61908;BME280;47864;52.526;19.672;2023-11-21T00:50:30;149500.78;;;1.92;100.00
61908;BME280;47864;52.526;19.672;2023-11-21T00:52:31;149414.16;;;1.58;100.00
61908;BME280;47864;52.526;19.672;2023-11-21T00:54:33;149421.69;;;1.61;100.00
61908;BME280;47864;52.526;19.672;2023-11-21T00:56:36;149460.59;;;1.76;100.00
61908;BME280;47864;52.526;19.672;2023-11-21T00:58:37;149415.41;;;1.58;100.00
61908;BME280;47864;52.526;19.672;2023-11-21T01:00:39;149374.00;;;1.41;100.00
61908;BME280;47864;52.526;19.672;2023-11-21T01:02:40;149286.19;;;1.06;100.00
61908;BME280;47864;52.526;19.672;2023-11-21T01:04:42;149400.38;;;1.52;100.00
61908;BME280;47864;52.526;19.672;2023-11-21T01:06:43;149365.22;;;1.38;100.00
61908;BME280;47864;52.526;19.672;2023-11-21T01:08:45;149409.16;;;1.56;100.00
61908;BME280;47864;52.526;19.672;2023-11-21T01:10:47;149405.38;;;1.54;100.00
61908;BME280;47864;52.526;19.672;2023-11-21T01:12:48;149386.56;;;1.46;100.00
61908;BME280;47864;52.526;19.672;2023-11-21T01:14:50;149396.59;;;1.50;100.00
61908;BME280;47864;52.526;19.672;2023-11-21T01:16:52;149371.47;;;1.40;100.00
61908;BME280;47864;52.526;19.672;2023-11-21T01:18:54;149325.09;;;1.22;100.00
61908;BME280;47864;52.526;19.672;2023-11-21T01:20:56;149376.50;;;1.42;100.00
61908;BME280;47864;52.526;19.672;2023-11-21T01:22:57;149358.94;;;1.35;100.00
61908;BME280;47864;52.526;19.672;2023-11-21T01:24:59;149387.81;;;1.47;100.00
61908;BME280;47864;52.526;19.672;2023-11-21T01:27:00;149350.19;;;1.32;100.00
61908;BME280;47864;52.526;19.672;2023-11-21T01:29:02;149372.72;;;1.41;100.00
61908;BME280;47864;52.526;19.672;2023-11-21T01:31:04;149397.84;;;1.51;100.00
61908;BME280;47864;52.526;19.672;2023-11-21T01:33:06;149400.38;;;1.52;100.00
61908;BME280;47864;52.526;19.672;2023-11-21T01:35:07;149414.16;;;1.58;100.00
61908;BME280;47864;52.526;19.672;2023-11-21T01:37:09;149402.88;;;1.53;100.00
61908;BME280;47864;52.526;19.672;2023-11-21T01:39:11;149432.97;;;1.65;100.00
61908;BME280;47864;52.526;19.672;2023-11-21T01:41:12;149429.25;;;1.64;100.00
61908;BME280;47864;52.526;19.672;2023-11-21T01:43:14;149392.81;;;1.49;100.00
61908;BME280;47864;52.526;19.672;2023-11-21T01:45:16;149411.63;;;1.57;100.00
61908;BME280;47864;52.526;19.672;2023-11-21T01:47:17;149451.84;;;1.73;100.00
61908;BME280;47864;52.526;19.672;2023-11-21T01:49:19;149419.19;;;1.60;100.00
61908;BME280;47864;52.526;19.672;2023-11-21T01:51:20;149392.81;;;1.49;100.00
61908;BME280;47864;52.526;19.672;2023-11-21T01:53:24;149357.69;;;1.35;100.00
61908;BME280;47864;52.526;19.672;2023-11-21T01:55:25;149355.16;;;1.34;100.00
61908;BME280;47864;52.526;19.672;2023-11-21T01:57:29;149335.09;;;1.26;100.00
61908;BME280;47864;52.526;19.672;2023-11-21T01:59:34;149345.16;;;1.30;100.00
61908;BME280;47864;52.526;19.672;2023-11-21T02:01:36;149325.09;;;1.22;100.00
61908;BME280;47864;52.526;19.672;2023-11-21T02:03:38;149345.16;;;1.30;100.00
61908;BME280;47864;52.526;19.672;2023-11-21T02:05:39;149386.56;;;1.46;100.00
61908;BME280;47864;52.526;19.672;2023-11-21T02:07:41;149337.63;;;1.27;100.00
61908;BME280;47864;52.526;19.672;2023-11-21T02:09:43;149405.38;;;1.54;100.00
61908;BME280;47864;52.526;19.672;2023-11-21T02:11:44;149369.00;;;1.39;100.00
61908;BME280;47864;52.526;19.672;2023-11-21T02:13:46;149292.44;;;1.08;100.00
61908;BME280;47864;52.526;19.672;2023-11-21T02:15:48;149328.88;;;1.23;100.00
61908;BME280;47864;52.526;19.672;2023-11-21T02:17:50;149302.50;;;1.12;100.00
61908;BME280;47864;52.526;19.672;2023-11-21T02:19:52;149371.47;;;1.40;100.00
61908;BME280;47864;52.526;19.672;2023-11-21T02:21:53;149367.75;;;1.39;100.00
61908;BME280;47864;52.526;19.672;2023-11-21T02:23:55;149343.91;;;1.29;100.00
61908;BME280;47864;52.526;19.672;2023-11-21T02:25:56;149355.16;;;1.34;100.00
61908;BME280;47864;52.526;19.672;2023-11-21T02:28:02;149405.38;;;1.54;100.00
61908;BME280;47864;52.526;19.672;2023-11-21T02:30:05;149412.88;;;1.57;100.00
61908;BME280;47864;52.526;19.672;2023-11-21T02:32:06;149343.91;;;1.29;100.00
61908;BME280;47864;52.526;19.672;2023-11-21T02:34:08;149392.81;;;1.49;100.00
61908;BME280;47864;52.526;19.672;2023-11-21T02:36:09;149350.19;;;1.32;100.00
61908;BME280;47864;52.526;19.672;2023-11-21T02:38:11;149416.66;;;1.59;100.00
61908;BME280;47864;52.526;19.672;2023-11-21T02:40:12;149428.00;;;1.63;100.00
61908;BME280;47864;52.526;19.672;2023-11-21T02:42:14;149330.06;;;1.24;100.00
61908;BME280;47864;52.526;19.672;2023-11-21T02:44:16;149341.38;;;1.28;100.00
61908;BME280;47864;52.526;19.672;2023-11-21T02:46:17;149380.28;;;1.44;100.00
61908;BME280;47864;52.526;19.672;2023-11-21T02:48:19;149435.50;;;1.66;100.00
61908;BME280;47864;52.526;19.672;2023-11-21T02:50:20;149380.28;;;1.44;100.00
61908;BME280;47864;52.526;19.672;2023-11-21T02:52:22;149430.50;;;1.64;100.00
61908;BME280;47864;52.526;19.672;2023-11-21T02:54:24;149458.09;;;1.75;100.00
61908;BME280;47864;52.526;19.672;2023-11-21T02:56:25;149451.84;;;1.73;100.00
61908;BME280;47864;52.526;19.672;2023-11-21T02:58:27;149461.88;;;1.77;100.00
61908;BME280;47864;52.526;19.672;2023-11-21T03:00:29;149443.03;;;1.69;100.00
61908;BME280;47864;52.526;19.672;2023-11-21T03:02:30;149355.16;;;1.34;100.00
61908;BME280;47864;52.526;19.672;2023-11-21T03:04:32;149350.19;;;1.32;100.00
61908;BME280;47864;52.526;19.672;2023-11-21T03:06:34;149332.59;;;1.25;100.00
61908;BME280;47864;52.526;19.672;2023-11-21T03:08:35;149380.28;;;1.44;100.00
61908;BME280;47864;52.526;19.672;2023-11-21T03:10:37;149356.44;;;1.34;100.00
61908;BME280;47864;52.526;19.672;2023-11-21T03:12:39;149387.81;;;1.47;100.00
61908;BME280;47864;52.526;19.672;2023-11-21T03:14:41;149375.25;;;1.42;100.00
61908;BME280;47864;52.526;19.672;2023-11-21T03:16:43;149407.91;;;1.55;100.00
61908;BME280;47864;52.526;19.672;2023-11-21T03:18:45;149384.06;;;1.45;100.00
61908;BME280;47864;52.526;19.672;2023-11-21T03:20:46;149407.91;;;1.55;100.00
61908;BME280;47864;52.526;19.672;2023-11-21T03:22:48;149399.09;;;1.51;100.00
61908;BME280;47864;52.526;19.672;2023-11-21T03:24:50;149426.72;;;1.63;100.00
61908;BME280;47864;52.526;19.672;2023-11-21T03:26:51;149450.59;;;1.72;100.00
61908;BME280;47864;52.526;19.672;2023-11-21T03:28:53;149409.16;;;1.56;100.00
61908;BME280;47864;52.526;19.672;2023-11-21T03:30:55;149485.72;;;1.86;100.00
61908;BME280;47864;52.526;19.672;2023-11-21T03:32:56;149444.28;;;1.70;100.00
61908;BME280;47864;52.526;19.672;2023-11-21T03:34:58;149455.56;;;1.74;100.00
61908;BME280;47864;52.526;19.672;2023-11-21T03:37:01;149444.28;;;1.70;100.00
61908;BME280;47864;52.526;19.672;2023-11-21T03:39:02;149407.91;;;1.55;100.00
61908;BME280;47864;52.526;19.672;2023-11-21T03:41:04;149377.75;;;1.43;100.00
61908;BME280;47864;52.526;19.672;2023-11-21T03:43:06;149375.25;;;1.42;100.00
61908;BME280;47864;52.526;19.672;2023-11-21T03:45:08;149409.16;;;1.56;100.00
61908;BME280;47864;52.526;19.672;2023-11-21T03:47:10;149405.38;;;1.54;100.00
61908;BME280;47864;52.526;19.672;2023-11-21T03:49:11;149365.22;;;1.38;100.00
61908;BME280;47864;52.526;19.672;2023-11-21T03:51:13;149284.94;;;1.05;100.00
61908;BME280;47864;52.526;19.672;2023-11-21T03:53:14;149312.50;;;1.17;100.00
61908;BME280;47864;52.526;19.672;2023-11-21T03:55:16;149306.28;;;1.14;100.00
61908;BME280;47864;52.526;19.672;2023-11-21T03:57:17;149312.50;;;1.17;100.00
61908;BME280;47864;52.526;19.672;2023-11-21T03:59:19;149272.38;;;1.00;100.00
61908;BME280;47864;52.526;19.672;2023-11-21T04:01:21;149315.03;;;1.18;100.00
61908;BME280;47864;52.526;19.672;2023-11-21T04:03:23;149313.78;;;1.17;100.00
61908;BME280;47864;52.526;19.672;2023-11-21T04:05:25;149297.47;;;1.10;100.00
61908;BME280;47864;52.526;19.672;2023-11-21T04:07:26;149321.31;;;1.20;100.00
61908;BME280;47864;52.526;19.672;2023-11-21T04:09:28;149317.53;;;1.19;100.00
61908;BME280;47864;52.526;19.672;2023-11-21T04:11:30;149356.44;;;1.34;100.00
61908;BME280;47864;52.526;19.672;2023-11-21T04:13:32;149348.94;;;1.31;100.00
61908;BME280;47864;52.526;19.672;2023-11-21T04:15:33;149371.47;;;1.40;100.00
61908;BME280;47864;52.526;19.672;2023-11-21T04:17:35;149316.28;;;1.18;100.00
61908;BME280;47864;52.526;19.672;2023-11-21T04:19:36;149350.19;;;1.32;100.00
61908;BME280;47864;52.526;19.672;2023-11-21T04:21:38;149345.16;;;1.30;100.00
61908;BME280;47864;52.526;19.672;2023-11-21T04:23:39;149288.72;;;1.07;100.00
61908;BME280;47864;52.526;19.672;2023-11-21T04:25:41;149312.50;;;1.17;100.00
61908;BME280;47864;52.526;19.672;2023-11-21T04:27:44;149335.09;;;1.26;100.00
61908;BME280;47864;52.526;19.672;2023-11-21T04:29:46;149307.53;;;1.14;100.00
61908;BME280;47864;52.526;19.672;2023-11-21T04:31:47;149307.53;;;1.14;100.00
61908;BME280;47864;52.526;19.672;2023-11-21T04:33:49;149254.81;;;0.93;100.00
61908;BME280;47864;52.526;19.672;2023-11-21T04:35:51;149297.47;;;1.10;100.00
61908;BME280;47864;52.526;19.672;2023-11-21T04:37:52;149230.97;;;0.84;100.00
61908;BME280;47864;52.526;19.672;2023-11-21T04:39:54;149272.38;;;1.00;100.00
61908;BME280;47864;52.526;19.672;2023-11-21T04:41:55;149251.03;;;0.92;100.00
61908;BME280;47864;52.526;19.672;2023-11-21T04:43:57;149198.38;;;0.70;100.00
61908;BME280;47864;52.526;19.672;2023-11-21T04:45:58;149209.66;;;0.75;100.00
61908;BME280;47864;52.526;19.672;2023-11-21T04:48:00;149248.53;;;0.91;100.00
61908;BME280;47864;52.526;19.672;2023-11-21T04:50:03;149308.78;;;1.15;100.00
61908;BME280;47864;52.526;19.672;2023-11-21T04:52:05;149317.53;;;1.19;100.00
61908;BME280;47864;52.526;19.672;2023-11-21T04:54:07;149336.34;;;1.26;100.00
61908;BME280;47864;52.526;19.672;2023-11-21T04:56:08;149336.34;;;1.26;100.00
61908;BME280;47864;52.526;19.672;2023-11-21T04:58:10;149341.38;;;1.28;100.00
61908;BME280;47864;52.526;19.672;2023-11-21T05:00:12;149376.50;;;1.42;100.00
61908;BME280;47864;52.526;19.672;2023-11-21T05:02:13;149356.44;;;1.34;100.00
61908;BME280;47864;52.526;19.672;2023-11-21T05:04:34;149356.44;;;1.34;100.00
61908;BME280;47864;52.526;19.672;2023-11-21T05:06:36;149321.31;;;1.20;100.00
61908;BME280;47864;52.526;19.672;2023-11-21T05:08:37;149310.00;;;1.15;100.00
61908;BME280;47864;52.526;19.672;2023-11-21T05:10:38;149254.81;;;0.93;100.00
61908;BME280;47864;52.526;19.672;2023-11-21T05:12:41;149258.59;;;0.95;100.00
61908;BME280;47864;52.526;19.672;2023-11-21T05:14:43;149244.81;;;0.89;100.00
61908;BME280;47864;52.526;19.672;2023-11-21T05:16:45;149299.97;;;1.11;100.00
61908;BME280;47864;52.526;19.672;2023-11-21T05:18:47;149284.94;;;1.05;100.00
61908;BME280;47864;52.526;19.672;2023-11-21T05:20:49;149274.88;;;1.01;100.00
61908;BME280;47864;52.526;19.672;2023-11-21T05:22:50;149229.72;;;0.83;100.00
61908;BME280;47864;52.526;19.672;2023-11-21T05:24:52;149272.38;;;1.00;100.00
61908;BME280;47864;52.526;19.672;2023-11-21T05:26:54;149232.22;;;0.84;100.00
61908;BME280;47864;52.526;19.672;2023-11-21T05:28:55;149239.78;;;0.87;100.00
61908;BME280;47864;52.526;19.672;2023-11-21T05:30:57;149195.88;;;0.69;100.00
61908;BME280;47864;52.526;19.672;2023-11-21T05:33:14;149179.56;;;0.63;100.00
61908;BME280;47864;52.526;19.672;2023-11-21T05:35:16;149224.72;;;0.81;100.00
61908;BME280;47864;52.526;19.672;2023-11-21T05:37:18;149253.56;;;0.93;100.00
61908;BME280;47864;52.526;19.672;2023-11-21T05:39:20;149251.03;;;0.92;100.00
61908;BME280;47864;52.526;19.672;2023-11-21T05:41:22;149299.97;;;1.11;100.00
61908;BME280;47864;52.526;19.672;2023-11-21T05:43:23;149355.16;;;1.34;100.00
61908;BME280;47864;52.526;19.672;2023-11-21T05:45:25;149351.41;;;1.32;100.00
61908;BME280;47864;52.526;19.672;2023-11-21T05:47:26;149297.47;;;1.10;100.00
61908;BME280;47864;52.526;19.672;2023-11-21T05:49:28;149273.63;;;1.01;100.00
61908;BME280;47864;52.526;19.672;2023-11-21T05:51:29;149237.25;;;0.86;100.00
61908;BME280;47864;52.526;19.672;2023-11-21T05:53:31;149287.47;;;1.06;100.00
61908;BME280;47864;52.526;19.672;2023-11-21T05:55:33;149296.22;;;1.10;100.00
61908;BME280;47864;52.526;19.672;2023-11-21T05:57:35;149283.69;;;1.05;100.00
61908;BME280;47864;52.526;19.672;2023-11-21T05:59:37;149232.22;;;0.84;100.00
61908;BME280;47864;52.526;19.672;2023-11-21T06:01:38;149229.72;;;0.83;100.00
61908;BME280;47864;52.526;19.672;2023-11-21T06:03:40;149247.31;;;0.90;100.00
61908;BME280;47864;52.526;19.672;2023-11-21T06:05:42;149254.81;;;0.93;100.00
61908;BME280;47864;52.526;19.672;2023-11-21T06:07:43;149308.78;;;1.15;100.00
61908;BME280;47864;52.526;19.672;2023-11-21T06:09:45;149266.13;;;0.98;100.00
61908;BME280;47864;52.526;19.672;2023-11-21T06:11:46;149286.19;;;1.06;100.00
61908;BME280;47864;52.526;19.672;2023-11-21T06:13:48;149318.78;;;1.19;100.00
61908;BME280;47864;52.526;19.672;2023-11-21T06:15:53;149316.28;;;1.18;100.00
61908;BME280;47864;52.526;19.672;2023-11-21T06:17:54;149262.34;;;0.96;100.00
61908;BME280;47864;52.526;19.672;2023-11-21T06:19:56;149257.31;;;0.94;100.00
61908;BME280;47864;52.526;19.672;2023-11-21T06:21:57;149217.19;;;0.78;100.00
61908;BME280;47864;52.526;19.672;2023-11-21T06:23:59;149214.69;;;0.77;100.00
61908;BME280;47864;52.526;19.672;2023-11-21T06:26:01;149212.16;;;0.76;100.00
61908;BME280;47864;52.526;19.672;2023-11-21T06:28:02;149254.81;;;0.93;100.00
61908;BME280;47864;52.526;19.672;2023-11-21T06:30:05;149218.44;;;0.79;100.00
61908;BME280;47864;52.526;19.672;2023-11-21T06:32:06;149242.28;;;0.88;100.00
61908;BME280;47864;52.526;19.672;2023-11-21T06:34:08;149229.72;;;0.83;100.00
61908;BME280;47864;52.526;19.672;2023-11-21T06:36:10;149247.31;;;0.90;100.00
61908;BME280;47864;52.526;19.672;2023-11-21T06:38:11;149261.09;;;0.96;100.00
61908;BME280;47864;52.526;19.672;2023-11-21T06:40:13;149223.47;;;0.81;100.00
61908;BME280;47864;52.526;19.672;2023-11-21T06:42:15;149268.66;;;0.99;100.00
61908;BME280;47864;52.526;19.672;2023-11-21T06:44:17;149238.50;;;0.87;100.00
61908;BME280;47864;52.526;19.672;2023-11-21T06:46:18;149307.53;;;1.14;100.00
61908;BME280;47864;52.526;19.672;2023-11-21T06:48:20;149312.50;;;1.17;100.00
61908;BME280;47864;52.526;19.672;2023-11-21T06:50:22;149286.19;;;1.06;100.00
61908;BME280;47864;52.526;19.672;2023-11-21T06:52:23;149244.81;;;0.89;100.00
61908;BME280;47864;52.526;19.672;2023-11-21T06:54:26;149257.31;;;0.94;100.00
61908;BME280;47864;52.526;19.672;2023-11-21T06:56:28;149251.03;;;0.92;100.00
61908;BME280;47864;52.526;19.672;2023-11-21T06:58:29;149293.69;;;1.09;100.00
61908;BME280;47864;52.526;19.672;2023-11-21T07:00:30;149287.47;;;1.06;100.00
61908;BME280;47864;52.526;19.672;2023-11-21T07:02:32;149207.19;;;0.74;100.00
61908;BME280;47864;52.526;19.672;2023-11-21T07:04:34;149136.94;;;0.46;100.00
61908;BME280;47864;52.526;19.672;2023-11-21T07:06:35;149189.59;;;0.67;100.00
61908;BME280;47864;52.526;19.672;2023-11-21T07:08:37;149222.22;;;0.80;100.00
61908;BME280;47864;52.526;19.672;2023-11-21T07:10:39;149274.88;;;1.01;100.00
61908;BME280;47864;52.526;19.672;2023-11-21T07:12:40;149299.97;;;1.11;100.00
61908;BME280;47864;52.526;19.672;2023-11-21T07:14:42;149292.44;;;1.08;100.00
61908;BME280;47864;52.526;19.672;2023-11-21T07:16:43;149204.66;;;0.73;100.00
61908;BME280;47864;52.526;19.672;2023-11-21T07:18:45;149279.91;;;1.03;100.00
61908;BME280;47864;52.526;19.672;2023-11-21T07:20:47;149219.69;;;0.79;100.00
61908;BME280;47864;52.526;19.672;2023-11-21T07:22:48;149184.59;;;0.65;100.00
61908;BME280;47864;52.526;19.672;2023-11-21T07:24:50;149276.13;;;1.02;100.00
61908;BME280;47864;52.526;19.672;2023-11-21T07:26:51;149335.09;;;1.26;100.00
61908;BME280;47864;52.526;19.672;2023-11-21T07:28:53;149274.88;;;1.01;100.00
61908;BME280;47864;52.526;19.672;2023-11-21T07:30:55;149302.50;;;1.12;100.00
61908;BME280;47864;52.526;19.672;2023-11-21T07:32:56;149320.06;;;1.20;100.00
61908;BME280;47864;52.526;19.672;2023-11-21T07:34:58;149291.19;;;1.08;100.00
61908;BME280;47864;52.526;19.672;2023-11-21T07:37:00;149283.69;;;1.05;100.00
61908;BME280;47864;52.526;19.672;2023-11-21T07:39:01;149242.28;;;0.88;100.00
61908;BME280;47864;52.526;19.672;2023-11-21T07:41:03;149274.88;;;1.01;100.00
61908;BME280;47864;52.526;19.672;2023-11-21T07:43:05;149232.22;;;0.84;100.00
61908;BME280;47864;52.526;19.672;2023-11-21T07:45:07;149253.56;;;0.93;100.00
61908;BME280;47864;52.526;19.672;2023-11-21T07:47:09;149258.59;;;0.95;100.00
61908;BME280;47864;52.526;19.672;2023-11-21T07:49:11;149312.50;;;1.17;100.00
61908;BME280;47864;52.526;19.672;2023-11-21T07:51:13;149297.47;;;1.10;100.00
61908;BME280;47864;52.526;19.672;2023-11-21T07:53:15;149252.31;;;0.92;100.00
61908;BME280;47864;52.526;19.672;2023-11-21T07:55:16;149234.75;;;0.85;100.00
61908;BME280;47864;52.526;19.672;2023-11-21T07:57:18;149264.88;;;0.97;100.00
61908;BME280;47864;52.526;19.672;2023-11-21T07:59:19;149299.97;;;1.11;100.00
61908;BME280;47864;52.526;19.672;2023-11-21T08:01:21;149267.38;;;0.98;100.00
61908;BME280;47864;52.526;19.672;2023-11-21T08:03:22;149284.94;;;1.05;100.00
61908;BME280;47864;52.526;19.672;2023-11-21T08:05:25;149338.88;;;1.27;100.00
61908;BME280;47864;52.526;19.672;2023-11-21T08:07:38;149327.59;;;1.23;100.00
61908;BME280;47864;52.526;19.672;2023-11-21T08:09:52;149308.78;;;1.15;100.00
61908;BME280;47864;52.526;19.672;2023-11-21T08:11:54;149306.28;;;1.14;100.00
61908;BME280;47864;52.526;19.672;2023-11-21T08:13:55;149254.81;;;0.93;100.00
61908;BME280;47864;52.526;19.672;2023-11-21T08:16:00;149292.44;;;1.08;100.00
61908;BME280;47864;52.526;19.672;2023-11-21T08:18:02;149284.94;;;1.05;100.00
61908;BME280;47864;52.526;19.672;2023-11-21T08:20:21;149284.94;;;1.05;100.00
61908;BME280;47864;52.526;19.672;2023-11-21T08:22:23;149289.91;;;1.07;100.00
61908;BME280;47864;52.526;19.672;2023-11-21T08:24:24;149241.03;;;0.88;100.00
61908;BME280;47864;52.526;19.672;2023-11-21T08:26:26;149232.22;;;0.84;100.00
61908;BME280;47864;52.526;19.672;2023-11-21T08:28:27;149189.59;;;0.67;100.00
61908;BME280;47864;52.526;19.672;2023-11-21T08:30:29;149234.75;;;0.85;100.00
61908;BME280;47864;52.526;19.672;2023-11-21T08:32:31;149237.25;;;0.86;100.00
61908;BME280;47864;52.526;19.672;2023-11-21T08:34:32;149288.72;;;1.07;100.00
61908;BME280;47864;52.526;19.672;2023-11-21T08:36:34;149237.25;;;0.86;100.00
61908;BME280;47864;52.526;19.672;2023-11-21T08:38:35;149261.09;;;0.96;100.00
61908;BME280;47864;52.526;19.672;2023-11-21T08:40:38;149321.31;;;1.20;100.00
61908;BME280;47864;52.526;19.672;2023-11-21T08:42:39;149293.69;;;1.09;100.00
61908;BME280;47864;52.526;19.672;2023-11-21T08:44:41;149347.69;;;1.31;100.00
61908;BME280;47864;52.526;19.672;2023-11-21T08:46:42;149325.09;;;1.22;100.00
61908;BME280;47864;52.526;19.672;2023-11-21T08:48:44;149297.47;;;1.10;100.00
61908;BME280;47864;52.526;19.672;2023-11-21T08:50:46;149337.63;;;1.27;100.00
61908;BME280;47864;52.526;19.672;2023-11-21T08:52:48;149330.06;;;1.24;100.00
61908;BME280;47864;52.526;19.672;2023-11-21T08:54:50;149337.63;;;1.27;100.00
61908;BME280;47864;52.526;19.672;2023-11-21T08:56:54;149282.44;;;1.04;100.00
61908;BME280;47864;52.526;19.672;2023-11-21T08:58:56;149336.34;;;1.26;100.00
61908;BME280;47864;52.526;19.672;2023-11-21T09:00:57;149325.09;;;1.22;100.00
61908;BME280;47864;52.526;19.672;2023-11-21T09:03:00;149322.56;;;1.21;100.00
61908;BME280;47864;52.526;19.672;2023-11-21T09:05:04;149312.50;;;1.17;100.00
61908;BME280;47864;52.526;19.672;2023-11-21T09:07:06;149332.59;;;1.25;100.00
61908;BME280;47864;52.526;19.672;2023-11-21T09:09:07;149358.94;;;1.35;100.00
61908;BME280;47864;52.526;19.672;2023-11-21T09:11:09;149316.28;;;1.18;100.00
61908;BME280;47864;52.526;19.672;2023-11-21T09:13:11;149372.72;;;1.41;100.00
61908;BME280;47864;52.526;19.672;2023-11-21T09:15:12;149392.81;;;1.49;100.00
61908;BME280;47864;52.526;19.672;2023-11-21T09:17:14;149310.00;;;1.15;100.00
61908;BME280;47864;52.526;19.672;2023-11-21T09:19:15;149279.91;;;1.03;100.00
61908;BME280;47864;52.526;19.672;2023-11-21T09:21:17;149323.81;;;1.21;100.00
61908;BME280;47864;52.526;19.672;2023-11-21T09:23:19;149347.69;;;1.31;100.00
61908;BME280;47864;52.526;19.672;2023-11-21T09:25:20;149346.41;;;1.30;100.00
61908;BME280;47864;52.526;19.672;2023-11-21T09:27:22;149335.09;;;1.26;100.00
61908;BME280;47864;52.526;19.672;2023-11-21T09:29:24;149259.84;;;0.95;100.00
61908;BME280;47864;52.526;19.672;2023-11-21T09:31:26;149303.75;;;1.13;100.00
61908;BME280;47864;52.526;19.672;2023-11-21T09:33:27;149272.38;;;1.00;100.00
61908;BME280;47864;52.526;19.672;2023-11-21T09:35:29;149312.50;;;1.17;100.00
61908;BME280;47864;52.526;19.672;2023-11-21T09:37:31;149335.09;;;1.26;100.00
61908;BME280;47864;52.526;19.672;2023-11-21T09:39:33;149248.53;;;0.91;100.00
61908;BME280;47864;52.526;19.672;2023-11-21T09:41:46;149315.03;;;1.18;100.00
61908;BME280;47864;52.526;19.672;2023-11-21T09:43:54;149273.63;;;1.01;100.00
61908;BME280;47864;52.526;19.672;2023-11-21T09:46:00;149287.47;;;1.06;100.00
61908;BME280;47864;52.526;19.672;2023-11-21T09:48:03;149311.25;;;1.16;100.00
61908;BME280;47864;52.526;19.672;2023-11-21T09:50:05;149313.78;;;1.17;100.00
61908;BME280;47864;52.526;19.672;2023-11-21T09:52:08;149345.16;;;1.30;100.00
61908;BME280;47864;52.526;19.672;2023-11-21T09:54:10;149345.16;;;1.30;100.00
61908;BME280;47864;52.526;19.672;2023-11-21T09:56:13;149243.53;;;0.89;100.00
61908;BME280;47864;52.526;19.672;2023-11-21T09:58:15;149294.94;;;1.09;100.00
61908;BME280;47864;52.526;19.672;2023-11-21T10:00:16;149357.69;;;1.35;100.00
61908;BME280;47864;52.526;19.672;2023-11-21T10:02:20;149396.59;;;1.50;100.00
61908;BME280;47864;52.526;19.672;2023-11-21T10:04:22;149407.91;;;1.55;100.00
61908;BME280;47864;52.526;19.672;2023-11-21T10:06:24;149361.47;;;1.36;100.00
61908;BME280;47864;52.526;19.672;2023-11-21T10:08:27;149340.13;;;1.28;100.00
61908;BME280;47864;52.526;19.672;2023-11-21T10:10:49;149323.81;;;1.21;100.00
61908;BME280;47864;52.526;19.672;2023-11-21T10:12:55;149306.28;;;1.14;100.00
61908;BME280;47864;52.526;19.672;2023-11-21T10:14:58;149318.78;;;1.19;100.00
61908;BME280;47864;52.526;19.672;2023-11-21T10:17:00;149350.19;;;1.32;100.00
61908;BME280;47864;52.526;19.672;2023-11-21T10:19:03;149313.78;;;1.17;100.00
61908;BME280;47864;52.526;19.672;2023-11-21T10:21:12;149277.41;;;1.02;100.00
61908;BME280;47864;52.526;19.672;2023-11-21T10:23:14;149283.69;;;1.05;100.00
61908;BME280;47864;52.526;19.672;2023-11-21T10:25:16;149301.25;;;1.12;100.00
61908;BME280;47864;52.526;19.672;2023-11-21T10:27:17;149338.88;;;1.27;100.00
61908;BME280;47864;52.526;19.672;2023-11-21T10:29:19;149311.25;;;1.16;100.00
61908;BME280;47864;52.526;19.672;2023-11-21T10:31:21;149357.69;;;1.35;100.00